createdAt,value
2022-08-31T00:00:41.461Z,99701.53
2022-08-31T00:03:29.570Z,99699.69
2022-08-31T00:05:59.257Z,99706.38
2022-08-31T00:08:30.643Z,99698.81
2022-08-31T00:11:03.299Z,99705.09
2022-08-31T00:13:33.465Z,99704.28
2022-08-31T00:16:13.023Z,99700.31
2022-08-31T00:18:42.272Z,99700.53
2022-08-31T00:21:10.407Z,99698.66
2022-08-31T00:23:40.101Z,99705.94
2022-08-31T00:26:11.882Z,99706.38
2022-08-31T00:28:41.246Z,99703.81
2022-08-31T00:31:12.274Z,99704.47
2022-08-31T00:33:42.013Z,99709.69
2022-08-31T00:36:16.581Z,99699.25
2022-08-31T00:38:48.261Z,99695.47
2022-08-31T00:41:19.329Z,99706.56
2022-08-31T00:43:52.137Z,99701.75
2022-08-31T00:46:23.455Z,99706.53
2022-08-31T00:49:01.332Z,99697.56
2022-08-31T00:51:30.964Z,99699.22
2022-08-31T00:54:01.035Z,99701.34
2022-08-31T00:56:31.530Z,99700.50
2022-08-31T00:59:01.264Z,99699.22
2022-08-31T01:01:31.025Z,99691.72
2022-08-31T01:04:00.990Z,99693.38
2022-08-31T01:06:29.630Z,99697.75
2022-08-31T01:09:00.588Z,99686.50
2022-08-31T01:11:30.416Z,99692.53
2022-08-31T01:13:58.515Z,99692.53
2022-08-31T01:16:34.085Z,99684.16
2022-08-31T01:19:04.738Z,99684.78
2022-08-31T01:21:39.526Z,99684.16
2022-08-31T01:24:12.369Z,99682.53
2022-08-31T01:26:40.975Z,99683.75
2022-08-31T01:29:10.138Z,99675.19
2022-08-31T01:31:45.125Z,99673.09
2022-08-31T01:34:14.352Z,99678.34
2022-08-31T01:36:43.881Z,99676.56
2022-08-31T01:39:15.300Z,99669.56
2022-08-31T01:41:45.868Z,99674.97
2022-08-31T01:44:16.929Z,99672.19
2022-08-31T01:46:46.361Z,99667.69
2022-08-31T01:49:16.033Z,99677.91
2022-08-31T01:51:46.535Z,99675.84
2022-08-31T01:54:16.249Z,99683.31
2022-08-31T01:56:47.434Z,99678.31
2022-08-31T01:59:22.240Z,99683.00
2022-08-31T02:02:06.464Z,99682.19
2022-08-31T02:04:38.346Z,99677.59
2022-08-31T02:07:06.751Z,99678.31
2022-08-31T02:09:41.750Z,99680.81
2022-08-31T02:12:12.770Z,99683.22
2022-08-31T02:14:42.781Z,99686.19
2022-08-31T02:17:11.762Z,99677.63
2022-08-31T02:19:40.062Z,99677.59
2022-08-31T02:22:08.265Z,99667.16
2022-08-31T02:24:36.361Z,99664.66
2022-08-31T02:27:06.740Z,99663.56
2022-08-31T02:29:38.188Z,99665.69
2022-08-31T02:32:07.628Z,99652.38
2022-08-31T02:34:37.774Z,99658.56
2022-08-31T02:37:05.907Z,99656.06
2022-08-31T02:39:39.734Z,99650.84
2022-08-31T02:42:10.460Z,99640.88
2022-08-31T02:44:38.726Z,99645.88
2022-08-31T02:47:06.879Z,99643.34
2022-08-31T02:49:41.735Z,99639.16
2022-08-31T02:52:09.858Z,99637.13
2022-08-31T02:54:40.851Z,99636.66
2022-08-31T02:57:12.138Z,99628.31
2022-08-31T02:59:40.786Z,99621.00
2022-08-31T03:02:10.412Z,99631.00
2022-08-31T03:04:40.274Z,99631.44
2022-08-31T03:07:08.480Z,99626.81
2022-08-31T03:09:39.907Z,99634.16
2022-08-31T03:12:17.352Z,99628.59
2022-08-31T03:14:45.758Z,99630.88
2022-08-31T03:17:15.158Z,99622.50
2022-08-31T03:19:43.321Z,99630.16
2022-08-31T03:22:15.137Z,99625.59
2022-08-31T03:24:44.068Z,99624.56
2022-08-31T03:27:14.583Z,99627.28
2022-08-31T03:29:42.968Z,99628.06
2022-08-31T03:32:20.124Z,99632.59
2022-08-31T03:34:54.580Z,99638.72
2022-08-31T03:37:24.420Z,99641.94
2022-08-31T03:39:55.978Z,99644.66
2022-08-31T03:42:27.538Z,99637.81
2022-08-31T03:44:57.862Z,99648.91
2022-08-31T03:47:31.429Z,99646.44
2022-08-31T03:50:04.069Z,99636.31
2022-08-31T03:52:45.755Z,99634.81
2022-08-31T03:55:21.326Z,99644.28
2022-08-31T03:57:51.317Z,99646.16
2022-08-31T04:00:20.051Z,99648.00
2022-08-31T04:02:57.418Z,99651.91
2022-08-31T04:05:34.331Z,99655.66
2022-08-31T04:08:18.860Z,99659.47
2022-08-31T04:11:13.101Z,99652.56
2022-08-31T04:14:02.371Z,99649.06
2022-08-31T04:16:37.096Z,99650.94
2022-08-31T04:19:20.202Z,99656.56
2022-08-31T04:22:14.967Z,99657.81
2022-08-31T04:24:56.748Z,99668.84
2022-08-31T04:27:26.990Z,99679.13
2022-08-31T04:29:56.627Z,99665.09
2022-08-31T04:32:24.818Z,99669.31
2022-08-31T04:34:56.393Z,99671.13
2022-08-31T04:37:24.884Z,99670.50
2022-08-31T04:39:55.679Z,99666.81
2022-08-31T04:42:29.590Z,99677.59
2022-08-31T04:44:59.289Z,99672.56
2022-08-31T04:47:27.905Z,99681.81
2022-08-31T04:49:56.934Z,99685.78
2022-08-31T04:52:28.327Z,99692.41
2022-08-31T04:54:57.871Z,99685.31
2022-08-31T04:57:27.301Z,99691.34
2022-08-31T04:59:55.714Z,99692.44
2022-08-31T05:02:46.788Z,99686.97
2022-08-31T05:05:20.512Z,99687.81
2022-08-31T05:07:48.983Z,99684.94
2022-08-31T05:10:19.204Z,99689.81
2022-08-31T05:12:47.359Z,99693.56
2022-08-31T05:15:16.049Z,99686.63
2022-08-31T05:17:46.367Z,99695.44
2022-08-31T05:20:15.920Z,99702.88
2022-08-31T05:22:44.929Z,99699.84
2022-08-31T05:25:13.340Z,99702.53
2022-08-31T05:27:42.340Z,99706.28
2022-08-31T05:30:13.184Z,99705.09
2022-08-31T05:32:45.430Z,99702.63
2022-08-31T05:35:16.679Z,99707.00
2022-08-31T05:37:46.019Z,99701.38
2022-08-31T05:40:15.479Z,99699.69
2022-08-31T05:42:43.535Z,99707.44
2022-08-31T05:45:13.107Z,99698.63
2022-08-31T05:47:43.161Z,99693.03
2022-08-31T05:50:11.895Z,99697.94
2022-08-31T05:52:45.485Z,99696.50
2022-08-31T05:55:13.678Z,99695.78
2022-08-31T05:57:43.397Z,99703.25
2022-08-31T06:00:12.872Z,99689.16
2022-08-31T06:02:41.886Z,99706.94
2022-08-31T06:05:13.942Z,99708.19
2022-08-31T06:07:47.094Z,99708.81
2022-08-31T06:10:17.108Z,99713.81
2022-08-31T06:12:48.933Z,99712.19
2022-08-31T06:15:21.091Z,99708.19
2022-08-31T06:17:49.284Z,99714.03
2022-08-31T06:20:18.576Z,99713.19
2022-08-31T06:22:50.342Z,99712.38
2022-08-31T06:25:32.763Z,99715.47
2022-08-31T06:28:01.744Z,99709.88
2022-08-31T06:30:32.819Z,99702.59
2022-08-31T06:33:02.029Z,99709.25
2022-08-31T06:35:41.113Z,99711.78
2022-08-31T06:38:29.155Z,99711.63
2022-08-31T06:41:36.406Z,99701.97
2022-08-31T06:44:26.984Z,99706.13
2022-08-31T06:47:10.524Z,99713.84
2022-08-31T06:49:42.016Z,99708.66
2022-08-31T06:52:10.267Z,99704.69
2022-08-31T06:54:41.470Z,99708.63
2022-08-31T06:57:28.708Z,99721.81
2022-08-31T07:00:15.512Z,99717.00
2022-08-31T07:03:23.218Z,99715.09
2022-08-31T07:05:53.977Z,99720.53
2022-08-31T07:08:22.757Z,99711.97
2022-08-31T07:10:53.926Z,99723.03
2022-08-31T07:13:22.059Z,99719.72
2022-08-31T07:15:52.659Z,99718.06
2022-08-31T07:18:20.990Z,99712.63
2022-08-31T07:20:49.832Z,99716.59
2022-08-31T07:23:18.603Z,99709.28
2022-08-31T07:26:05.359Z,99714.66
2022-08-31T07:28:33.899Z,99709.06
2022-08-31T07:31:03.456Z,99707.38
2022-08-31T07:33:39.066Z,99696.75
2022-08-31T07:36:15.252Z,99707.59
2022-08-31T07:39:11.100Z,99695.06
2022-08-31T07:42:02.670Z,99691.94
2022-08-31T07:44:34.630Z,99693.34
2022-08-31T07:47:04.550Z,99684.84
2022-08-31T07:49:33.012Z,99700.72
2022-08-31T07:52:11.675Z,99692.03
2022-08-31T07:55:07.808Z,99695.00
2022-08-31T07:57:54.911Z,99695.41
2022-08-31T08:00:25.508Z,99686.19
2022-08-31T08:02:54.237Z,99685.28
2022-08-31T08:05:28.774Z,99679.38
2022-08-31T08:08:23.282Z,99677.81
2022-08-31T08:11:10.065Z,99682.00
2022-08-31T08:13:43.924Z,99683.63
2022-08-31T08:16:36.478Z,99683.00
2022-08-31T08:19:20.358Z,99687.72
2022-08-31T08:21:52.193Z,99687.84
2022-08-31T08:24:31.908Z,99685.41
2022-08-31T08:27:23.407Z,99688.13
2022-08-31T08:30:01.886Z,99694.16
2022-08-31T08:32:41.168Z,99685.47
2022-08-31T08:35:11.084Z,99690.16
2022-08-31T08:37:57.785Z,99685.78
2022-08-31T08:40:32.435Z,99688.69
2022-08-31T08:43:02.469Z,99687.94
2022-08-31T08:45:34.111Z,99685.91
2022-08-31T08:48:09.723Z,99691.19
2022-08-31T08:50:38.235Z,99696.75
2022-08-31T08:53:08.778Z,99700.97
2022-08-31T08:55:41.662Z,99692.63
2022-08-31T08:58:12.873Z,99693.72
2022-08-31T09:19:23.292Z,99675.59
2022-08-31T09:22:34.481Z,99680.03
2022-08-31T09:25:52.213Z,99682.88
2022-08-31T09:29:25.009Z,99682.88
2022-08-31T09:32:36.509Z,99676.28
2022-08-31T09:35:48.324Z,99683.47
2022-08-31T09:38:59.953Z,99679.09
2022-08-31T09:42:20.216Z,99667.19
2022-08-31T09:45:41.418Z,99669.59
2022-08-31T09:48:10.734Z,99665.72
2022-08-31T09:50:45.184Z,99662.63
2022-08-31T09:54:04.977Z,99657.63
2022-08-31T09:56:36.529Z,99663.16
2022-08-31T09:59:11.931Z,99659.41
2022-08-31T10:01:45.609Z,99659.97
2022-08-31T10:04:19.640Z,99655.28
2022-08-31T10:06:56.494Z,99656.41
2022-08-31T10:09:33.643Z,99651.31
2022-08-31T10:12:06.628Z,99656.09
2022-08-31T10:14:40.923Z,99651.44
2022-08-31T10:17:15.329Z,99656.31
2022-08-31T10:19:53.100Z,99646.56
2022-08-31T10:22:28.395Z,99647.09
2022-08-31T10:25:15.568Z,99637.56
2022-08-31T10:27:48.699Z,99636.72
2022-08-31T10:30:36.744Z,99635.03
2022-08-31T10:33:13.362Z,99633.84
2022-08-31T10:35:52.838Z,99636.97
2022-08-31T10:38:27.447Z,99639.41
2022-08-31T10:41:13.162Z,99631.72
2022-08-31T10:43:46.741Z,99635.25
2022-08-31T10:46:17.199Z,99631.84
2022-08-31T10:48:52.336Z,99631.22
2022-08-31T10:51:27.044Z,99631.97
2022-08-31T10:54:08.257Z,99633.75
2022-08-31T10:56:44.237Z,99632.34
2022-08-31T10:59:21.532Z,99633.50
2022-08-31T11:01:57.651Z,99635.16
2022-08-31T11:05:03.500Z,99637.19
2022-08-31T11:07:40.123Z,99636.72
2022-08-31T11:10:29.083Z,99637.31
2022-08-31T11:13:02.126Z,99640.97
2022-08-31T11:16:06.695Z,99636.34
2022-08-31T11:19:09.247Z,99638.63
2022-08-31T11:22:28.705Z,99638.25
2022-08-31T11:25:18.005Z,99641.63
2022-08-31T11:27:52.998Z,99643.88
2022-08-31T11:30:26.827Z,99640.63
2022-08-31T11:32:57.693Z,99647.19
2022-08-31T11:36:04.047Z,99638.03
2022-08-31T11:39:15.249Z,99647.38
2022-08-31T11:41:46.760Z,99634.69
2022-08-31T11:45:00.984Z,99635.38
2022-08-31T11:47:43.523Z,99652.84
2022-08-31T11:50:54.482Z,99650.78
2022-08-31T11:53:29.828Z,99650.63
2022-08-31T11:56:00.639Z,99639.44
2022-08-31T11:58:33.869Z,99638.25
2022-08-31T12:01:07.038Z,99641.13
2022-08-31T12:03:44.331Z,99633.75
2022-08-31T12:06:50.884Z,99634.59
2022-08-31T12:09:40.932Z,99634.78
2022-08-31T12:12:14.194Z,99641.47
2022-08-31T12:14:50.335Z,99643.59
2022-08-31T12:17:23.109Z,99643.38
2022-08-31T12:20:02.242Z,99644.06
2022-08-31T12:23:36.218Z,99644.44
2022-08-31T12:26:13.481Z,99639.56
2022-08-31T12:29:23.076Z,99637.56
2022-08-31T12:32:14.407Z,99644.31
2022-08-31T12:34:47.353Z,99652.50
2022-08-31T12:37:23.779Z,99641.63
2022-08-31T12:40:11.454Z,99646.13
2022-08-31T12:42:46.325Z,99638.84
2022-08-31T12:45:19.719Z,99635.06
2022-08-31T12:47:55.143Z,99635.53
2022-08-31T12:50:29.662Z,99637.06
2022-08-31T12:53:39.837Z,99644.06
2022-08-31T12:56:15.122Z,99645.63
2022-08-31T12:58:56.170Z,99635.97
2022-08-31T13:01:27.243Z,99646.41
2022-08-31T13:03:57.749Z,99637.50
2022-08-31T13:06:28.009Z,99645.16
2022-08-31T13:09:01.819Z,99644.97
2022-08-31T13:11:40.267Z,99653.44
2022-08-31T13:14:13.290Z,99640.72
2022-08-31T13:16:44.405Z,99638.56
2022-08-31T13:19:22.901Z,99642.56
2022-08-31T13:21:53.587Z,99652.28
2022-08-31T13:24:32.219Z,99648.38
2022-08-31T13:27:08.360Z,99640.56
2022-08-31T13:29:41.285Z,99644.28
2022-08-31T13:32:09.733Z,99644.28
2022-08-31T13:34:42.246Z,99646.78
2022-08-31T13:37:15.218Z,99634.22
2022-08-31T13:39:46.856Z,99634.00
2022-08-31T13:42:25.613Z,99628.63
2022-08-31T13:44:56.693Z,99637.34
2022-08-31T13:47:29.000Z,99636.09
2022-08-31T13:50:03.280Z,99636.88
2022-08-31T13:52:34.786Z,99632.13
2022-08-31T13:55:08.241Z,99635.69
2022-08-31T13:57:38.412Z,99638.31
2022-08-31T14:00:34.127Z,99630.53
2022-08-31T14:03:33.819Z,99632.28
2022-08-31T14:06:23.859Z,99637.13
2022-08-31T14:08:55.056Z,99639.84
2022-08-31T14:11:29.453Z,99630.31
2022-08-31T14:14:06.136Z,99635.53
2022-08-31T14:16:37.064Z,99631.34
2022-08-31T14:19:06.119Z,99631.28
2022-08-31T14:21:36.014Z,99626.34
2022-08-31T14:24:05.341Z,99628.69
2022-08-31T14:26:41.808Z,99628.81
2022-08-31T14:29:12.456Z,99627.97
2022-08-31T14:31:45.366Z,99631.34
2022-08-31T14:34:23.334Z,99624.50
2022-08-31T14:36:55.153Z,99633.75
2022-08-31T14:39:27.311Z,99628.19
2022-08-31T14:41:59.280Z,99630.34
2022-08-31T14:44:32.121Z,99627.22
2022-08-31T14:47:00.835Z,99635.59
2022-08-31T14:49:36.568Z,99646.50
2022-08-31T14:52:07.132Z,99642.50
2022-08-31T14:54:37.941Z,99641.19
2022-08-31T14:57:11.738Z,99638.78
2022-08-31T14:59:44.852Z,99640.22
2022-08-31T15:02:16.546Z,99648.66
2022-08-31T15:04:46.040Z,99638.81
2022-08-31T15:07:17.003Z,99638.94
2022-08-31T15:09:46.956Z,99643.16
2022-08-31T15:12:16.875Z,99640.50
2022-08-31T15:14:47.432Z,99647.78
2022-08-31T15:17:19.778Z,99651.06
2022-08-31T15:19:53.234Z,99645.81
2022-08-31T15:22:21.927Z,99647.66
2022-08-31T15:24:50.300Z,99645.91
2022-08-31T15:27:22.463Z,99650.56
2022-08-31T15:30:04.580Z,99649.28
2022-08-31T15:32:32.843Z,99661.53
2022-08-31T15:35:02.295Z,99654.97
2022-08-31T15:37:32.709Z,99659.41
2022-08-31T15:40:03.759Z,99650.34
2022-08-31T15:42:39.892Z,99653.81
2022-08-31T15:45:10.791Z,99657.19
2022-08-31T15:47:59.891Z,99659.09
2022-08-31T15:50:32.426Z,99650.97
2022-08-31T15:53:08.822Z,99655.28
2022-08-31T15:55:39.000Z,99660.94
2022-08-31T15:58:13.824Z,99651.75
2022-08-31T16:00:42.984Z,99656.63
2022-08-31T16:03:12.695Z,99650.28
2022-08-31T16:05:44.498Z,99662.06
2022-08-31T16:08:14.393Z,99664.16
2022-08-31T16:10:45.400Z,99667.78
2022-08-31T16:13:16.963Z,99664.28
2022-08-31T16:15:51.151Z,99666.34
2022-08-31T16:18:21.981Z,99679.94
2022-08-31T16:20:52.224Z,99666.34
2022-08-31T16:23:21.500Z,99665.34
2022-08-31T16:25:51.855Z,99677.06
2022-08-31T16:28:22.363Z,99685.41
2022-08-31T16:30:52.176Z,99678.50
2022-08-31T16:33:20.742Z,99684.56
2022-08-31T16:35:50.774Z,99682.91
2022-08-31T16:38:19.455Z,99680.03
2022-08-31T16:40:48.963Z,99690.50
2022-08-31T16:43:17.608Z,99691.31
2022-08-31T16:45:47.254Z,99691.72
2022-08-31T16:48:34.108Z,99707.16
2022-08-31T16:51:04.129Z,99708.66
2022-08-31T16:53:32.774Z,99700.50
2022-08-31T16:56:03.895Z,99703.84
2022-08-31T16:58:53.376Z,99706.97
2022-08-31T17:01:40.431Z,99709.09
2022-08-31T17:04:24.632Z,99705.34
2022-08-31T17:07:03.350Z,99708.00
2022-08-31T17:09:42.592Z,99710.94
2022-08-31T17:12:17.700Z,99715.31
2022-08-31T17:14:51.504Z,99713.28
2022-08-31T17:17:22.630Z,99715.09
2022-08-31T17:19:52.237Z,99709.28
2022-08-31T17:22:29.911Z,99710.31
2022-08-31T17:25:03.823Z,99716.00
2022-08-31T17:27:34.172Z,99726.22
2022-08-31T17:30:05.986Z,99725.56
2022-08-31T17:32:45.166Z,99717.63
2022-08-31T17:35:18.656Z,99717.41
2022-08-31T17:37:49.177Z,99714.91
2022-08-31T17:40:17.939Z,99716.97
2022-08-31T17:42:46.558Z,99728.88
2022-08-31T17:45:15.762Z,99719.63
2022-08-31T17:47:45.782Z,99718.38
2022-08-31T17:50:19.997Z,99735.69
2022-08-31T17:52:48.999Z,99737.38
2022-08-31T17:55:17.792Z,99732.63
2022-08-31T17:57:47.099Z,99743.75
2022-08-31T18:00:19.509Z,99743.91
2022-08-31T18:02:50.371Z,99754.41
2022-08-31T18:05:18.988Z,99751.13
2022-08-31T18:07:50.241Z,99762.16
2022-08-31T18:10:20.445Z,99762.44
2022-08-31T18:12:48.923Z,99748.97
2022-08-31T18:15:19.196Z,99752.72
2022-08-31T18:17:48.146Z,99757.78
2022-08-31T18:20:19.178Z,99766.69
2022-08-31T18:22:52.062Z,99774.72
2022-08-31T18:25:21.817Z,99776.28
2022-08-31T18:27:58.376Z,99766.25
2022-08-31T18:30:30.846Z,99774.56
2022-08-31T18:33:03.344Z,99770.72
2022-08-31T18:35:34.592Z,99772.41
2022-08-31T18:38:08.562Z,99776.97
2022-08-31T18:40:57.162Z,99785.16
2022-08-31T18:43:46.534Z,99783.53
2022-08-31T18:46:15.827Z,99780.72
2022-08-31T18:48:54.948Z,99785.97
2022-08-31T18:51:25.276Z,99782.66
2022-08-31T18:53:56.309Z,99774.03
2022-08-31T18:56:29.575Z,99782.38
2022-08-31T18:58:59.485Z,99783.78
2022-08-31T19:01:33.644Z,99789.59
2022-08-31T19:04:03.403Z,99784.59
2022-08-31T19:06:45.404Z,99781.75
2022-08-31T19:09:15.323Z,99781.84
2022-08-31T19:11:49.217Z,99787.22
2022-08-31T19:14:20.609Z,99784.50
2022-08-31T19:16:55.129Z,99785.09
2022-08-31T19:19:31.070Z,99779.09
2022-08-31T19:22:01.571Z,99781.00
2022-08-31T19:24:30.271Z,99781.09
2022-08-31T19:27:05.240Z,99782.81
2022-08-31T19:29:37.969Z,99790.13
2022-08-31T19:32:09.090Z,99790.13
2022-08-31T19:34:41.628Z,99787.88
2022-08-31T19:37:13.828Z,99792.00
2022-08-31T19:39:45.822Z,99782.00
2022-08-31T19:42:16.677Z,99784.75
2022-08-31T19:44:55.768Z,99782.53
2022-08-31T19:47:38.893Z,99785.56
2022-08-31T19:50:13.558Z,99775.13
2022-08-31T19:52:44.889Z,99779.69
2022-08-31T19:55:13.850Z,99774.19
2022-08-31T19:57:43.652Z,99782.56
2022-08-31T20:00:13.749Z,99781.06
2022-08-31T20:02:44.867Z,99777.88
2022-08-31T20:05:15.941Z,99776.34
2022-08-31T20:07:45.875Z,99779.53
2022-08-31T20:10:16.779Z,99775.66
2022-08-31T20:12:45.951Z,99781.78
2022-08-31T20:15:15.674Z,99783.88
2022-08-31T20:17:44.161Z,99780.59
2022-08-31T20:20:13.546Z,99779.09
2022-08-31T20:22:42.073Z,99782.88
2022-08-31T20:25:18.054Z,99773.31
2022-08-31T20:27:48.411Z,99768.44
2022-08-31T20:30:19.623Z,99769.13
2022-08-31T20:32:48.115Z,99777.91
2022-08-31T20:35:16.883Z,99775.59
2022-08-31T20:37:45.430Z,99774.53
2022-08-31T20:40:17.433Z,99771.63
2022-08-31T20:42:46.014Z,99771.94
2022-08-31T20:45:14.428Z,99765.59
2022-08-31T20:48:11.800Z,99777.03
2022-08-31T20:50:43.061Z,99778.56
2022-08-31T20:53:18.141Z,99774.84
2022-08-31T20:55:55.077Z,99789.72
2022-08-31T20:58:23.466Z,99779.56
2022-08-31T21:00:51.752Z,99771.69
2022-08-31T21:03:20.430Z,99769.81
2022-08-31T21:05:48.868Z,99779.63
2022-08-31T21:08:17.422Z,99771.34
2022-08-31T21:10:45.661Z,99772.47
2022-08-31T21:13:16.692Z,99768.06
2022-08-31T21:15:46.744Z,99768.91
2022-08-31T21:18:17.687Z,99776.09
2022-08-31T21:20:46.445Z,99772.41
2022-08-31T21:23:15.994Z,99777.16
2022-08-31T21:25:45.969Z,99777.38
2022-08-31T21:28:18.380Z,99780.34
2022-08-31T21:30:49.145Z,99782.66
2022-08-31T21:33:17.953Z,99777.22
2022-08-31T21:35:46.142Z,99779.75
2022-08-31T21:38:14.748Z,99778.41
2022-08-31T21:40:49.239Z,99779.25
2022-08-31T21:43:19.556Z,99777.91
2022-08-31T21:45:48.316Z,99773.97
2022-08-31T21:48:26.135Z,99786.16
2022-08-31T21:50:54.747Z,99776.50
2022-08-31T21:53:23.113Z,99776.88
2022-08-31T21:55:51.241Z,99770.69
2022-08-31T21:58:20.837Z,99770.66
2022-08-31T22:00:51.130Z,99771.00
2022-08-31T22:03:20.424Z,99767.75
2022-08-31T22:05:48.697Z,99760.56
2022-08-31T22:08:17.977Z,99773.16
2022-08-31T22:10:46.198Z,99767.75
2022-08-31T22:13:14.528Z,99765.78
2022-08-31T22:15:47.150Z,99769.03
2022-08-31T22:18:59.050Z,99764.06
2022-08-31T22:21:05.400Z,99765.34
2022-08-31T22:23:36.959Z,99761.00
2022-08-31T22:26:05.768Z,99757.22
2022-08-31T22:28:35.507Z,99757.84
2022-08-31T22:31:07.462Z,99753.66
2022-08-31T22:33:38.116Z,99754.13
2022-08-31T22:36:25.775Z,99747.16
2022-08-31T22:39:03.289Z,99741.97
2022-08-31T22:41:32.847Z,99745.16
2022-08-31T22:44:02.943Z,99743.63
2022-08-31T22:46:34.018Z,99743.38
2022-08-31T22:49:03.714Z,99741.28
2022-08-31T22:51:33.261Z,99735.97
2022-08-31T22:54:04.057Z,99755.09
2022-08-31T22:56:34.490Z,99746.78
2022-08-31T22:59:05.760Z,99740.38
2022-08-31T23:01:38.437Z,99740.22
2022-08-31T23:04:09.624Z,99741.09
2022-08-31T23:06:39.846Z,99735.91
2022-08-31T23:09:12.467Z,99736.72
2022-08-31T23:11:41.092Z,99730.91
2022-08-31T23:14:11.301Z,99737.56
2022-08-31T23:16:42.910Z,99739.50
2022-08-31T23:19:14.414Z,99730.81
2022-08-31T23:21:45.148Z,99736.44
2022-08-31T23:24:16.791Z,99729.09
2022-08-31T23:26:49.759Z,99726.56
2022-08-31T23:29:19.963Z,99728.88
2022-08-31T23:31:50.341Z,99728.72
2022-08-31T23:34:22.088Z,99736.34
2022-08-31T23:36:53.356Z,99727.94
2022-08-31T23:39:25.215Z,99738.47
2022-08-31T23:41:53.884Z,99733.13
2022-08-31T23:44:24.708Z,99731.78
2022-08-31T23:46:55.428Z,99736.28
2022-08-31T23:49:24.972Z,99733.91
2022-08-31T23:51:53.855Z,99724.94
2022-08-31T23:54:23.373Z,99724.97
2022-08-31T23:56:57.864Z,99728.16
2022-08-31T23:59:27.703Z,99723.41
